Time;durP1;ratioP1;P1;durP2;ratioP2;P2;SDS_P1;SDS_P2;PMS_P1;PMS_P2;Temp;Humidity;BMP_temperature;BMP_pressure;BME280_temperature;BME280_humidity;BME280_pressure;Samples;Min_cycle;Max_cycle;Signal;HPM_P1;HPM_P2
2023/05/21 00:00:11;;;;;;;37.13;19.83;;;;;;;12.85;98.98;99315.78;5099800;28;20558;-63
2023/05/21 00:02:41;;;;;;;38.83;20.75;;;;;;;12.78;99.97;99307.09;5105658;28;20093;-63
2023/05/21 00:05:10;;;;;;;38.42;20.20;;;;;;;12.77;99.74;99302.78;5098851;28;20130;-63
2023/05/21 00:07:37;;;;;;;42.00;21.23;;;;;;;12.73;99.76;99300.63;5105284;28;20042;-63
2023/05/21 00:10:06;;;;;;;37.45;20.83;;;;;;;12.66;100.00;99300.00;5100781;28;20179;-62
2023/05/21 00:12:33;;;;;;;40.03;21.50;;;;;;;12.66;100.00;99304.59;5081193;28;20079;-61
2023/05/21 00:15:00;;;;;;;39.63;21.40;;;;;;;12.62;100.00;99301.56;5100754;28;20342;-62
2023/05/21 00:17:27;;;;;;;40.47;21.95;;;;;;;12.62;100.00;99293.50;5100567;28;20043;-64
2023/05/21 00:19:55;;;;;;;44.35;21.63;;;;;;;12.62;100.00;99290.81;5102826;28;20097;-63
2023/05/21 00:22:22;;;;;;;44.83;21.40;;;;;;;12.60;100.00;99289.44;5101064;28;20397;-64
2023/05/21 00:24:49;;;;;;;50.13;23.08;;;;;;;12.52;100.00;99283.47;5096427;28;20055;-63
2023/05/21 00:27:18;;;;;;;43.58;21.17;;;;;;;12.51;100.00;99291.78;5099652;28;20048;-63
2023/05/21 00:29:45;;;;;;;50.47;22.55;;;;;;;12.52;100.00;99277.28;5099977;28;20044;-63
2023/05/21 00:32:12;;;;;;;44.65;23.13;;;;;;;12.47;100.00;99274.53;5076370;28;20113;-62
2023/05/21 00:34:39;;;;;;;41.45;20.58;;;;;;;12.43;100.00;99270.72;5095620;28;20316;-62
2023/05/21 00:37:08;;;;;;;46.15;22.15;;;;;;;12.41;100.00;99272.88;5098720;28;20079;-62
2023/05/21 00:39:35;;;;;;;39.20;20.95;;;;;;;12.36;100.00;99268.25;5097631;28;20522;-63
2023/05/21 00:42:03;;;;;;;43.22;21.02;;;;;;;12.32;100.00;99264.44;5079534;28;20535;-62
2023/05/21 00:44:33;;;;;;;46.38;22.13;;;;;;;12.31;100.00;99268.22;5102928;28;20533;-62
2023/05/21 00:47:00;;;;;;;45.85;21.75;;;;;;;12.28;100.00;99261.47;5098961;28;20101;-62
2023/05/21 00:49:28;;;;;;;44.67;22.75;;;;;;;12.27;100.00;99261.72;5088833;28;20047;-62
2023/05/21 00:51:55;;;;;;;52.60;22.02;;;;;;;12.24;100.00;99256.84;5100071;28;20058;-62
2023/05/21 00:54:23;;;;;;;44.67;21.60;;;;;;;12.24;100.00;99254.16;5100005;28;20096;-62
2023/05/21 00:56:50;;;;;;;42.60;22.23;;;;;;;12.24;100.00;99257.66;5103151;28;20121;-62
2023/05/21 00:59:17;;;;;;;44.67;22.25;;;;;;;12.18;100.00;99253.28;5081756;28;20068;-62
2023/05/21 01:01:52;;;;;;;42.78;21.55;;;;;;;12.13;100.00;99255.94;5099614;28;20521;-62
2023/05/21 01:04:20;;;;;;;44.70;21.70;;;;;;;12.13;100.00;99253.25;5098612;28;20044;-62
2023/05/21 01:06:47;;;;;;;47.28;21.70;;;;;;;12.13;100.00;99260.47;5085522;28;20047;-62
2023/05/21 01:09:14;;;;;;;43.75;22.33;;;;;;;12.11;100.00;99266.09;5105277;28;20547;-62
2023/05/21 01:11:43;;;;;;;46.63;21.73;;;;;;;12.09;100.00;99255.59;5077401;28;20389;-62
2023/05/21 01:14:11;;;;;;;43.33;22.15;;;;;;;12.06;100.00;99249.94;5102833;28;20211;-62
2023/05/21 01:16:38;;;;;;;43.33;21.15;;;;;;;12.04;100.00;99249.38;5093991;28;20093;-62
2023/05/21 01:19:08;;;;;;;43.00;19.80;;;;;;;12.04;100.00;99249.38;5082327;28;20028;-62
2023/05/21 01:21:37;;;;;;;40.85;20.55;;;;;;;12.04;100.00;99249.38;5100820;28;20071;-62
2023/05/21 01:24:06;;;;;;;39.03;20.23;;;;;;;12.04;100.00;99244.00;5079089;28;20054;-62
2023/05/21 01:26:37;;;;;;;38.72;19.75;;;;;;;12.01;100.00;99244.50;5080257;28;20056;-62
2023/05/21 01:29:05;;;;;;;39.63;20.65;;;;;;;11.98;100.00;99237.75;5084056;28;20043;-62
2023/05/21 01:31:35;;;;;;;37.95;20.38;;;;;;;12.02;100.00;99238.06;5094446;28;20044;-62
2023/05/21 01:34:02;;;;;;;41.05;19.42;;;;;;;12.01;100.00;99233.75;5099507;28;20040;-62
2023/05/21 01:36:31;;;;;;;32.63;18.25;;;;;;;12.01;100.00;99236.44;5093187;28;20059;-62
2023/05/21 01:39:01;;;;;;;36.63;18.58;;;;;;;11.99;100.00;99238.56;5082606;28;20398;-62
2023/05/21 01:41:29;;;;;;;41.03;21.17;;;;;;;11.93;100.00;99235.03;5094833;28;20143;-62
2023/05/21 01:43:56;;;;;;;34.38;18.52;;;;;;;11.91;100.00;99234.44;5085824;28;20047;-62
2023/05/21 01:46:25;;;;;;;39.25;19.42;;;;;;;11.93;100.00;99231.50;5095505;28;20067;-62
2023/05/21 01:48:52;;;;;;;41.38;18.27;;;;;;;11.93;100.00;99236.88;5102378;28;20040;-62
2023/05/21 01:51:19;;;;;;;33.72;19.00;;;;;;;11.95;100.00;99237.44;5097283;28;20497;-62
2023/05/21 01:53:46;;;;;;;31.98;18.33;;;;;;;11.93;100.00;99236.88;5099467;28;20079;-62
2023/05/21 01:56:14;;;;;;;28.92;17.80;;;;;;;11.91;100.00;99239.00;5074872;28;20032;-62
2023/05/21 01:58:43;;;;;;;32.55;17.13;;;;;;;11.92;100.00;99240.63;5082985;28;20768;-62
2023/05/21 02:01:11;;;;;;;31.38;17.30;;;;;;;11.95;100.00;99234.75;5074844;28;20137;-62
2023/05/21 02:03:38;;;;;;;31.10;16.08;;;;;;;11.94;100.00;99238.50;5105191;28;20534;-62
2023/05/21 02:06:05;;;;;;;27.92;16.27;;;;;;;11.96;100.00;99236.38;5097396;28;20036;-61
2023/05/21 02:08:32;;;;;;;28.90;15.50;;;;;;;11.95;100.00;99234.75;5106338;28;20109;-62
2023/05/21 02:10:59;;;;;;;27.67;15.82;;;;;;;11.93;100.00;99231.50;5076090;28;20551;-62
2023/05/21 02:13:27;;;;;;;28.05;16.88;;;;;;;11.89;100.00;99228.50;5087441;28;20761;-62
2023/05/21 02:15:56;;;;;;;29.20;16.10;;;;;;;11.84;100.00;99226.53;5081626;28;20041;-62
2023/05/21 02:18:25;;;;;;;26.65;15.70;;;;;;;11.86;100.00;99231.69;5085017;28;20078;-64
2023/05/21 02:20:52;;;;;;;26.17;15.13;;;;;;;11.86;100.00;99229.00;5089485;28;20100;-63
2023/05/21 02:23:19;;;;;;;24.30;14.98;;;;;;;11.83;100.00;99224.94;5104576;28;20048;-62
2023/05/21 02:25:46;;;;;;;26.88;15.30;;;;;;;11.84;100.00;99236.47;5100236;28;20130;-64
2023/05/21 02:28:13;;;;;;;23.42;15.63;;;;;;;11.79;100.00;99226.50;5108383;28;20043;-62
2023/05/21 02:30:40;;;;;;;25.35;15.40;;;;;;;11.76;100.00;99231.56;5103871;28;20524;-62
2023/05/21 02:33:08;;;;;;;23.95;14.32;;;;;;;11.84;100.00;99229.22;5101590;28;20052;-61
2023/05/21 02:35:35;;;;;;;24.15;14.93;;;;;;;11.86;100.00;99229.00;5101498;28;20144;-62
2023/05/21 02:38:02;;;;;;;21.05;14.30;;;;;;;11.89;100.00;99225.03;5101993;28;20050;-62
2023/05/21 02:40:29;;;;;;;20.65;13.73;;;;;;;11.82;100.00;99225.97;5078460;28;20040;-62
2023/05/21 02:42:58;;;;;;;24.33;14.60;;;;;;;11.76;100.00;99221.63;5081661;28;20104;-63
2023/05/21 02:45:25;;;;;;;22.27;14.02;;;;;;;11.70;100.00;99221.81;5083380;28;20507;-64
2023/05/21 02:47:53;;;;;;;22.40;13.88;;;;;;;11.72;100.00;99225.84;5106899;28;20063;-62
2023/05/21 02:50:22;;;;;;;21.40;14.30;;;;;;;11.65;100.00;99227.91;5088680;28;20586;-64
2023/05/21 02:52:54;;;;;;;19.67;13.70;;;;;;;11.61;100.00;99224.13;5099089;28;20031;-62
2023/05/21 02:55:22;;;;;;;20.45;13.57;;;;;;;11.56;100.00;99224.88;5100044;28;20101;-64
2023/05/21 02:57:49;;;;;;;21.73;14.07;;;;;;;11.57;100.00;99217.63;5086445;28;20656;-64
2023/05/21 03:00:16;;;;;;;20.30;14.10;;;;;;;11.55;100.00;99225.09;5098471;28;20040;-63
2023/05/21 03:02:44;;;;;;;19.80;13.98;;;;;;;11.52;100.00;99220.25;5081822;28;20143;-63
2023/05/21 03:05:11;;;;;;;22.08;14.30;;;;;;;11.49;100.00;99220.75;5096718;28;20262;-63
2023/05/21 03:07:40;;;;;;;20.48;14.68;;;;;;;11.44;100.00;99219.59;5085584;28;20050;-63
2023/05/21 03:10:08;;;;;;;23.63;14.32;;;;;;;11.45;100.00;99215.03;5102681;28;20075;-63
2023/05/21 03:12:35;;;;;;;21.95;14.98;;;;;;;11.41;100.00;99209.38;5101729;28;20109;-63
2023/05/21 03:15:02;;;;;;;24.40;14.05;;;;;;;11.47;100.00;99217.50;5095757;28;20050;-62
2023/05/21 03:17:30;;;;;;;23.40;15.68;;;;;;;11.44;100.00;99210.75;5102433;28;20123;-63
2023/05/21 03:19:57;;;;;;;23.48;14.95;;;;;;;11.41;100.00;99209.38;5104617;28;20573;-62
2023/05/21 03:22:24;;;;;;;25.10;15.55;;;;;;;11.38;100.00;99199.13;5090499;28;20059;-62
2023/05/21 03:24:53;;;;;;;22.48;15.50;;;;;;;11.34;100.00;99198.00;5088795;28;20454;-63
2023/05/21 03:27:20;;;;;;;24.02;15.57;;;;;;;11.42;100.00;99207.50;5082280;28;20039;-63
2023/05/21 03:29:48;;;;;;;25.73;16.02;;;;;;;11.39;100.00;99205.31;5104315;28;20074;-62
2023/05/21 03:32:16;;;;;;;26.80;16.13;;;;;;;11.34;100.00;99205.25;5077608;28;20401;-62
2023/05/21 03:34:45;;;;;;;25.25;15.07;;;;;;;11.34;100.00;99200.69;5086444;28;20044;-62
2023/05/21 03:37:12;;;;;;;20.58;14.73;;;;;;;11.33;100.00;99207.13;5087423;28;20061;-63
2023/05/21 03:39:39;;;;;;;24.52;15.27;;;;;;;11.38;100.00;99203.66;5083941;28;20387;-63
2023/05/21 03:42:08;;;;;;;28.38;16.40;;;;;;;11.35;100.00;99199.63;5085905;28;20067;-62
2023/05/21 03:44:43;;;;;;;25.00;15.70;;;;;;;11.35;100.00;99204.19;5077395;28;20228;-62
2023/05/21 03:47:29;;;;;;;29.13;15.88;;;;;;;11.30;100.00;99206.78;5101646;28;20149;-63
2023/05/21 03:49:57;;;;;;;25.75;15.40;;;;;;;11.34;100.00;99213.28;5085056;28;20130;-62
2023/05/21 03:52:24;;;;;;;21.65;15.30;;;;;;;11.29;100.00;99205.97;5104849;28;20078;-62
2023/05/21 03:54:52;;;;;;;25.27;16.15;;;;;;;11.25;100.00;99204.03;5105200;28;20046;-62
2023/05/21 03:57:20;;;;;;;23.13;15.52;;;;;;;11.26;100.00;99202.97;5082192;28;20064;-62
2023/05/21 03:59:48;;;;;;;25.13;15.50;;;;;;;11.25;100.00;99198.66;5079984;28;20036;-63
2023/05/21 04:02:16;;;;;;;24.98;15.90;;;;;;;11.23;100.00;99202.44;5103116;28;20032;-62
2023/05/21 04:04:44;;;;;;;26.77;16.38;;;;;;;11.25;100.00;99204.03;5098381;28;20059;-62
2023/05/21 04:07:13;;;;;;;23.45;15.38;;;;;;;11.22;100.00;99210.72;5081899;28;20109;-62
2023/05/21 04:09:40;;;;;;;27.75;16.77;;;;;;;11.29;100.00;99205.97;5079132;28;20055;-63
2023/05/21 04:12:07;;;;;;;24.27;16.10;;;;;;;11.30;100.00;99218.31;5106018;28;20918;-63
2023/05/21 04:14:38;;;;;;;24.45;16.00;;;;;;;11.27;100.00;99210.78;5079731;28;20043;-62
2023/05/21 04:17:05;;;;;;;27.08;16.63;;;;;;;11.39;100.00;99206.13;5098305;28;20085;-62
2023/05/21 04:19:32;;;;;;;26.10;16.20;;;;;;;11.31;100.00;99219.16;5077823;28;20485;-62
2023/05/21 04:22:00;;;;;;;29.60;16.52;;;;;;;11.33;100.00;99208.97;5080140;28;20104;-62
2023/05/21 04:24:27;;;;;;;23.45;16.02;;;;;;;11.38;100.00;99209.88;5079033;28;20139;-62
2023/05/21 04:27:15;;;;;;;24.80;15.85;;;;;;;11.36;100.00;99212.00;5094040;28;20056;-62
2023/05/21 04:29:44;;;;;;;22.97;16.40;;;;;;;11.39;100.00;99213.38;5085288;28;20109;-62
2023/05/21 04:32:13;;;;;;;23.00;15.30;;;;;;;11.40;100.00;99221.16;5084333;28;20036;-62
2023/05/21 04:34:41;;;;;;;26.30;16.05;;;;;;;11.42;100.00;99212.84;5077412;28;20047;-62
2023/05/21 04:37:09;;;;;;;26.17;15.98;;;;;;;11.40;100.00;99212.28;5101685;28;20116;-62
2023/05/21 04:39:36;;;;;;;26.55;16.58;;;;;;;11.46;100.00;99214.00;5099081;28;20063;-62
2023/05/21 04:42:03;;;;;;;26.85;17.05;;;;;;;11.43;100.00;99215.31;5099193;28;20053;-62
2023/05/21 04:44:30;;;;;;;27.10;16.73;;;;;;;11.52;100.00;99217.56;5085080;28;20409;-62
2023/05/21 04:47:00;;;;;;;26.30;16.52;;;;;;;11.55;100.00;99219.72;5080091;28;20534;-62
2023/05/21 04:49:28;;;;;;;33.17;17.63;;;;;;;11.50;100.00;99223.16;5065922;28;20050;-62
2023/05/21 04:51:55;;;;;;;27.08;17.38;;;;;;;11.53;100.00;99221.84;5096463;28;20071;-62
2023/05/21 04:54:23;;;;;;;31.92;17.42;;;;;;;11.63;100.00;99230.03;5098632;28;20089;-62
2023/05/21 04:56:50;;;;;;;26.90;16.70;;;;;;;11.61;100.00;99218.75;5086419;28;20039;-62
2023/05/21 04:59:17;;;;;;;28.13;16.40;;;;;;;11.72;100.00;99220.50;5081426;28;20044;-62
2023/05/21 05:01:44;;;;;;;26.20;16.77;;;;;;;11.81;100.00;99220.88;5080355;28;20067;-63
2023/05/21 05:04:12;;;;;;;28.30;17.05;;;;;;;11.73;100.00;99229.34;5094012;28;20165;-63
2023/05/21 05:06:40;;;;;;;27.85;16.80;;;;;;;11.81;100.00;99229.75;5081167;28;20522;-63
2023/05/21 05:09:07;;;;;;;27.52;17.02;;;;;;;11.81;100.00;99231.63;5059447;28;20053;-63
2023/05/21 05:11:34;;;;;;;27.70;17.88;;;;;;;11.77;100.00;99233.97;5075707;28;20483;-65
2023/05/21 05:14:01;;;;;;;29.77;18.90;;;;;;;11.84;100.00;99231.91;5076773;28;20119;-63
2023/05/21 05:16:32;;;;;;;29.33;16.75;;;;;;;11.91;100.00;99236.34;5077987;28;20089;-63
2023/05/21 05:19:00;;;;;;;27.48;17.70;;;;;;;11.99;100.00;99234.00;5069261;28;20090;-63
2023/05/21 05:21:28;;;;;;;26.10;17.20;;;;;;;12.13;100.00;99231.75;5074304;28;20140;-63
2023/05/21 05:23:55;;;;;;;24.67;16.95;;;;;;;12.19;100.00;99229.91;5075775;28;20067;-63
2023/05/21 05:26:26;;;;;;;27.35;17.25;;;;;;;12.30;100.00;99224.41;5075554;28;20525;-63
2023/05/21 05:28:53;;;;;;;26.67;17.17;;;;;;;12.26;100.00;99235.91;5086481;28;20032;-63
2023/05/21 05:31:20;;;;;;;25.27;17.05;;;;;;;12.27;100.00;99232.94;5074886;28;20040;-63
2023/05/21 05:33:48;;;;;;;28.75;17.10;;;;;;;12.45;100.00;99230.97;5073362;28;20036;-63
2023/05/21 05:36:15;;;;;;;26.90;17.17;;;;;;;12.50;100.00;99226.47;5081943;28;20071;-63
2023/05/21 05:38:44;;;;;;;27.67;16.30;;;;;;;12.48;100.00;99217.84;5079848;28;20048;-63
2023/05/21 05:41:11;;;;;;;27.90;17.20;;;;;;;12.41;100.00;99222.63;5077840;28;20050;-63
2023/05/21 05:43:39;;;;;;;23.42;16.00;;;;;;;12.63;100.00;99224.41;5073998;28;20040;-63
2023/05/21 05:46:06;;;;;;;24.23;16.35;;;;;;;12.59;100.00;99218.75;5074299;28;20048;-63
2023/05/21 05:48:33;;;;;;;26.65;16.83;;;;;;;12.85;100.00;99218.94;5079449;28;20052;-63
2023/05/21 05:51:00;;;;;;;25.55;16.10;;;;;;;12.77;100.00;99220.22;5077275;28;20112;-61
2023/05/21 05:53:27;;;;;;;24.77;16.27;;;;;;;12.65;100.00;99228.47;5091428;28;20040;-62
2023/05/21 05:55:58;;;;;;;28.05;16.73;;;;;;;12.69;100.00;99231.47;5072560;28;20052;-63
2023/05/21 05:58:25;;;;;;;25.15;16.10;;;;;;;12.81;100.00;99231.31;5071026;28;20044;-63
2023/05/21 06:01:19;;;;;;;24.10;16.40;;;;;;;12.99;100.00;99233.59;5068115;28;20055;-63
2023/05/21 06:03:46;;;;;;;27.55;16.88;;;;;;;13.10;100.00;99221.84;5072932;28;20533;-63
2023/05/21 06:06:16;;;;;;;24.65;16.17;;;;;;;13.33;99.71;99233.31;5093518;28;20048;-63
2023/05/21 06:08:43;;;;;;;26.92;16.15;;;;;;;13.57;99.07;99218.34;5080999;28;20044;-62
2023/05/21 06:11:15;;;;;;;21.88;14.93;;;;;;;13.76;96.86;99226.78;5099463;28;20044;-62
2023/05/21 06:13:43;;;;;;;28.60;16.55;;;;;;;13.84;96.03;99222.78;5073718;28;20044;-62
2023/05/21 06:16:10;;;;;;;26.35;16.08;;;;;;;13.95;95.12;99229.00;5077036;28;20552;-62
2023/05/21 06:18:38;;;;;;;25.52;15.75;;;;;;;14.39;94.50;99229.38;5090512;28;20056;-62
2023/05/21 06:21:05;;;;;;;26.58;16.45;;;;;;;14.13;95.16;99230.41;5074599;28;20136;-63
2023/05/21 06:23:34;;;;;;;27.75;16.38;;;;;;;14.14;95.00;99223.94;5084745;28;20123;-63
2023/05/21 06:26:01;;;;;;;23.02;14.82;;;;;;;15.53;88.09;99220.97;5078183;28;20113;-63
2023/05/21 06:28:29;;;;;;;21.42;14.93;;;;;;;17.56;77.88;99220.91;5083470;28;20585;-62
2023/05/21 06:30:58;;;;;;;18.80;13.38;;;;;;;18.12;72.26;99228.34;5079196;28;20504;-63
2023/05/21 06:33:27;;;;;;;19.77;14.15;;;;;;;18.16;72.53;99220.47;5082825;28;20485;-63
2023/05/21 06:35:54;;;;;;;18.55;12.52;;;;;;;18.68;70.77;99224.81;5099814;28;20052;-62
2023/05/21 06:38:21;;;;;;;18.30;12.77;;;;;;;19.41;66.74;99230.66;5080309;28;20135;-63
2023/05/21 06:40:48;;;;;;;17.45;12.65;;;;;;;19.02;68.23;99234.63;5087218;28;20044;-63
2023/05/21 06:43:25;;;;;;;17.60;12.20;;;;;;;17.99;72.53;99220.94;5081985;28;20066;-63
2023/05/21 06:46:12;;;;;;;18.08;12.70;;;;;;;17.54;73.85;99223.09;5090354;28;20047;-62
2023/05/21 06:48:40;;;;;;;18.77;12.25;;;;;;;17.50;74.68;99211.22;5082386;28;20093;-62
2023/05/21 06:51:07;;;;;;;17.77;12.73;;;;;;;17.28;76.23;99220.66;5079335;28;20126;-62
2023/05/21 06:53:34;;;;;;;20.10;12.93;;;;;;;16.99;76.45;99224.19;5100053;28;20036;-62
2023/05/21 06:56:01;;;;;;;18.13;12.68;;;;;;;16.52;78.60;99224.81;5102241;28;20032;-62
2023/05/21 06:58:41;;;;;;;19.25;13.88;;;;;;;16.42;80.76;99231.09;5085577;28;20502;-62
2023/05/21 07:01:08;;;;;;;22.25;13.20;;;;;;;16.46;80.16;99232.16;5082408;28;20093;-62
2023/05/21 07:03:37;;;;;;;18.88;13.13;;;;;;;16.45;79.73;99235.97;5098532;28;20120;-62
2023/05/21 07:06:05;;;;;;;19.67;13.10;;;;;;;15.48;84.74;99228.28;5101972;28;20221;-62
2023/05/21 07:08:32;;;;;;;18.60;12.73;;;;;;;15.90;83.91;99232.47;5080704;28;20036;-62
2023/05/21 07:10:59;;;;;;;25.23;13.73;;;;;;;16.20;82.68;99233.38;5086284;28;20042;-62
2023/05/21 07:13:26;;;;;;;19.83;12.52;;;;;;;16.32;82.67;99236.56;5100409;28;20111;-62
2023/05/21 07:15:53;;;;;;;17.45;11.75;;;;;;;16.22;82.59;99244.75;5081493;28;20036;-62
2023/05/21 07:18:21;;;;;;;18.50;12.43;;;;;;;15.13;87.08;99240.78;5087765;28;20443;-62
2023/05/21 07:20:49;;;;;;;24.73;13.57;;;;;;;15.69;85.64;99237.94;5100108;28;20090;-62
2023/05/21 07:23:16;;;;;;;20.42;12.82;;;;;;;15.58;84.91;99243.66;5099763;28;20043;-62
2023/05/21 07:25:44;;;;;;;20.98;13.13;;;;;;;15.70;85.34;99231.47;5101903;28;20042;-62
2023/05/21 07:28:13;;;;;;;17.65;12.63;;;;;;;16.28;83.02;99236.34;5094822;28;20067;-62
2023/05/21 07:30:40;;;;;;;18.23;12.38;;;;;;;16.13;82.65;99236.41;5104436;28;20040;-62
2023/05/21 07:33:11;;;;;;;18.63;12.32;;;;;;;16.19;83.08;99235.28;5077596;28;20044;-62
2023/05/21 07:35:39;;;;;;;18.40;12.57;;;;;;;15.95;83.74;99237.88;5082529;28;20050;-62
2023/05/21 07:38:08;;;;;;;18.58;11.88;;;;;;;16.92;79.89;99228.31;5099666;28;20097;-62
2023/05/21 07:40:35;;;;;;;24.00;12.68;;;;;;;16.47;81.59;99233.75;5087354;28;20077;-62
2023/05/21 07:43:03;;;;;;;18.88;12.80;;;;;;;15.88;83.95;99231.94;5087949;28;20127;-62
2023/05/21 07:45:31;;;;;;;18.42;11.98;;;;;;;16.59;81.11;99228.81;5083326;28;20044;-62
2023/05/21 07:47:58;;;;;;;19.30;11.68;;;;;;;16.98;78.86;99228.00;5076340;28;20440;-62
2023/05/21 07:50:26;;;;;;;16.13;11.23;;;;;;;17.89;75.06;99233.53;5089455;28;20047;-63
2023/05/21 07:52:54;;;;;;;17.75;11.48;;;;;;;17.95;73.80;99233.50;5086816;28;20101;-62
2023/05/21 07:55:23;;;;;;;15.30;11.43;;;;;;;17.59;76.45;99228.44;5082086;28;20044;-62
2023/05/21 07:57:51;;;;;;;14.65;10.90;;;;;;;17.70;75.73;99229.97;5093171;28;20122;-62
2023/05/21 08:00:23;;;;;;;17.10;12.30;;;;;;;17.30;78.18;99232.03;5080882;28;20039;-63
2023/05/21 08:02:53;;;;;;;16.58;11.38;;;;;;;18.09;74.85;99220.81;5079820;28;20043;-62
2023/05/21 08:05:22;;;;;;;19.35;11.63;;;;;;;17.59;76.64;99214.91;5082775;28;20047;-61
2023/05/21 08:07:49;;;;;;;16.63;11.60;;;;;;;17.25;78.72;99221.25;5080156;28;20044;-62
2023/05/21 08:10:17;;;;;;;16.13;12.05;;;;;;;16.91;80.84;99216.69;5098270;28;20407;-62
2023/05/21 08:12:45;;;;;;;16.90;11.60;;;;;;;17.59;78.20;99223.84;5080683;28;20048;-62
2023/05/21 08:15:12;;;;;;;17.50;11.50;;;;;;;16.88;80.70;99217.25;5081585;28;20047;-62
2023/05/21 08:17:43;;;;;;;18.88;11.40;;;;;;;16.89;82.10;99218.84;5084842;28;20045;-63
2023/05/21 08:20:13;;;;;;;18.15;11.75;;;;;;;17.23;79.45;99223.44;5086543;28;20389;-62
2023/05/21 08:22:42;;;;;;;17.42;11.82;;;;;;;17.55;78.78;99220.09;5076239;28;20085;-62
2023/05/21 08:25:09;;;;;;;16.58;11.07;;;;;;;17.54;79.62;99217.69;5094864;28;20131;-62
2023/05/21 08:27:36;;;;;;;19.30;11.60;;;;;;;17.72;78.49;99224.22;5081927;28;20177;-62
2023/05/21 08:30:07;;;;;;;17.38;11.40;;;;;;;17.42;78.79;99221.59;5083973;28;20043;-62
2023/05/21 08:32:34;;;;;;;19.27;12.50;;;;;;;16.52;83.25;99220.19;5088327;28;20047;-62
2023/05/21 08:35:01;;;;;;;17.92;12.52;;;;;;;17.08;81.77;99220.88;5085823;28;20082;-62
2023/05/21 08:37:47;;;;;;;20.02;12.32;;;;;;;16.64;82.21;99222.56;5103094;28;20044;-63
2023/05/21 08:40:42;;;;;;;16.67;11.48;;;;;;;17.11;82.12;99226.50;5082871;28;20044;-63
2023/05/21 08:43:12;;;;;;;17.90;11.48;;;;;;;17.19;81.17;99216.97;5082583;28;20535;-62
2023/05/21 08:45:45;;;;;;;20.52;12.13;;;;;;;16.72;83.80;99213.03;5078773;28;20476;-62
2023/05/21 08:48:12;;;;;;;16.85;11.55;;;;;;;18.14;79.00;99212.59;5085400;28;20043;-62
2023/05/21 08:50:40;;;;;;;16.50;11.27;;;;;;;18.29;77.03;99212.38;5084563;28;20439;-62
2023/05/21 08:53:15;;;;;;;23.58;11.25;;;;;;;19.06;75.12;99215.81;5088626;28;20043;-62
2023/05/21 08:55:43;;;;;;;18.70;11.35;;;;;;;20.74;67.02;99206.06;5095061;28;20048;-62
2023/05/21 08:58:10;;;;;;;15.18;10.55;;;;;;;20.57;66.12;99211.41;5069767;28;20127;-63
2023/05/21 09:00:38;;;;;;;17.98;10.88;;;;;;;21.22;65.48;99205.38;5075028;28;20091;-62
2023/05/21 09:03:09;;;;;;;14.88;10.93;;;;;;;21.66;63.17;99203.63;5101535;28;20047;-63
2023/05/21 09:05:39;;;;;;;19.55;11.05;;;;;;;21.99;61.50;99203.25;5062506;28;20048;-62
2023/05/21 09:08:07;;;;;;;14.52;10.20;;;;;;;22.40;60.10;99199.28;5080994;28;20126;-63
2023/05/21 09:10:54;;;;;;;15.57;10.32;;;;;;;21.52;62.62;99205.69;5083825;28;20176;-62
2023/05/21 09:13:25;;;;;;;14.88;10.43;;;;;;;21.50;61.29;99206.00;5080732;28;20064;-62
2023/05/21 09:15:52;;;;;;;13.77;9.93;;;;;;;21.37;64.61;99197.88;5087702;28;20040;-63
2023/05/21 09:18:22;;;;;;;14.82;10.68;;;;;;;21.51;62.82;99202.16;5077931;28;20044;-62
2023/05/21 09:20:55;;;;;;;16.10;11.05;;;;;;;21.84;60.58;99195.50;5075610;28;20042;-62
2023/05/21 09:23:22;;;;;;;13.27;9.95;;;;;;;22.64;59.08;99190.59;5083662;28;20032;-63
2023/05/21 09:25:50;;;;;;;16.27;10.95;;;;;;;22.89;57.49;99193.59;5074517;28;20039;-62
2023/05/21 09:28:29;;;;;;;12.90;10.18;;;;;;;22.24;60.60;99189.97;5080527;28;20070;-62
2023/05/21 09:30:56;;;;;;;16.20;9.90;;;;;;;21.84;63.71;99181.84;5078391;28;20046;-63
2023/05/21 09:33:29;;;;;;;14.63;10.55;;;;;;;23.06;57.45;99179.91;5092609;28;20032;-63
2023/05/21 09:35:56;;;;;;;14.40;10.32;;;;;;;22.74;59.29;99186.69;5076554;28;20178;-62
2023/05/21 09:38:25;;;;;;;16.02;10.00;;;;;;;22.99;57.58;99174.97;5076230;28;20044;-62
2023/05/21 09:40:54;;;;;;;13.70;9.82;;;;;;;22.79;59.91;99183.84;5094725;28;20051;-62
2023/05/21 09:43:22;;;;;;;14.73;9.13;;;;;;;24.50;55.01;99180.88;5074611;28;20045;-62
2023/05/21 09:45:53;;;;;;;14.15;10.25;;;;;;;24.00;55.75;99181.72;5089815;28;20039;-63
2023/05/21 09:48:35;;;;;;;12.70;10.20;;;;;;;22.91;58.60;99178.47;5072183;28;20342;-62
2023/05/21 09:51:11;;;;;;;17.35;9.88;;;;;;;23.69;57.26;99188.34;5077470;28;20035;-63
2023/05/21 09:53:45;;;;;;;14.73;10.63;;;;;;;24.14;55.10;99182.28;5090668;28;20090;-62
2023/05/21 09:56:12;;;;;;;13.35;10.10;;;;;;;23.41;55.62;99177.88;5095149;28;20097;-62
2023/05/21 09:58:39;;;;;;;12.65;9.65;;;;;;;22.77;57.60;99186.88;5096060;28;20132;-62
2023/05/21 10:01:07;;;;;;;14.07;9.60;;;;;;;23.89;54.54;99171.19;5100802;28;20074;-62
2023/05/21 10:03:38;;;;;;;12.30;9.23;;;;;;;24.52;52.96;99175.84;5096977;28;20047;-62
2023/05/21 10:06:05;;;;;;;15.73;9.93;;;;;;;23.54;54.62;99177.94;5104153;28;20351;-62
2023/05/21 10:08:33;;;;;;;14.75;9.32;;;;;;;23.44;55.63;99171.72;5097806;28;20090;-62
2023/05/21 10:11:00;;;;;;;13.77;9.55;;;;;;;22.82;57.59;99174.97;5103300;28;20089;-62
2023/05/21 10:13:28;;;;;;;13.40;8.73;;;;;;;24.83;51.99;99172.63;5091517;28;20071;-62
2023/05/21 10:15:58;;;;;;;13.18;9.50;;;;;;;24.01;54.01;99164.16;5094014;28;20097;-63
2023/05/21 10:18:25;;;;;;;12.02;9.38;;;;;;;24.87;52.08;99159.06;5098822;28;20059;-62
2023/05/21 10:20:53;;;;;;;12.10;9.15;;;;;;;24.14;53.79;99159.53;5095641;28;20087;-62
2023/05/21 10:23:20;;;;;;;11.65;9.10;;;;;;;24.40;52.79;99151.91;5102859;28;20043;-62
2023/05/21 10:25:47;;;;;;;12.50;9.20;;;;;;;24.07;54.29;99149.16;5101169;28;20048;-62
2023/05/21 10:28:16;;;;;;;10.32;8.73;;;;;;;24.11;53.89;99139.94;5107553;28;20073;-62
2023/05/21 10:30:43;;;;;;;13.73;9.80;;;;;;;23.61;54.98;99153.59;5101730;28;20044;-62
2023/05/21 10:33:10;;;;;;;12.82;9.57;;;;;;;23.61;55.39;99145.41;5098261;28;20128;-62
2023/05/21 10:35:37;;;;;;;10.68;8.98;;;;;;;24.04;55.70;99144.34;5097089;27;20047;-62
2023/05/21 10:38:07;;;;;;;11.90;9.07;;;;;;;23.78;55.69;99130.84;5100675;28;20621;-63
2023/05/21 10:40:34;;;;;;;12.35;9.07;;;;;;;24.44;54.01;99130.16;5104814;28;20048;-62
2023/05/21 10:43:13;;;;;;;13.00;9.05;;;;;;;24.03;55.86;99120.84;5103143;28;20066;-63
2023/05/21 10:45:50;;;;;;;11.18;8.98;;;;;;;24.11;56.28;99128.16;5099277;28;20577;-62
2023/05/21 10:48:28;;;;;;;10.77;9.35;;;;;;;23.11;59.87;99124.25;5096335;27;20505;-61
2023/05/21 10:51:22;;;;;;;14.13;9.30;;;;;;;23.19;58.71;99128.91;5099889;28;20066;-61
2023/05/21 10:54:14;;;;;;;12.45;9.45;;;;;;;23.58;55.98;99122.25;5096863;28;20054;-60
2023/05/21 10:56:43;;;;;;;12.25;9.25;;;;;;;23.11;59.98;99118.78;5096127;28;20048;-61
2023/05/21 10:59:20;;;;;;;14.60;9.10;;;;;;;24.44;55.26;99109.03;5101428;28;20043;-61
2023/05/21 11:01:47;;;;;;;11.82;8.50;;;;;;;24.47;54.31;99113.06;5102397;28;20080;-61
2023/05/21 11:04:16;;;;;;;12.70;9.02;;;;;;;24.59;54.50;99110.38;5102562;28;20051;-61
2023/05/21 11:06:47;;;;;;;12.65;8.98;;;;;;;23.42;57.52;99123.97;5098260;28;20036;-61
2023/05/21 11:09:15;;;;;;;11.45;9.52;;;;;;;23.48;56.77;99117.94;5098420;28;20052;-61
2023/05/21 11:11:43;;;;;;;12.95;9.80;;;;;;;23.58;56.76;99111.31;5096588;28;20044;-61
2023/05/21 11:14:26;;;;;;;13.60;8.52;;;;;;;23.52;55.45;99123.59;5100483;28;20039;-61
2023/05/21 11:16:53;;;;;;;14.90;9.85;;;;;;;22.75;59.28;99125.50;5096404;28;20063;-61
2023/05/21 11:19:20;;;;;;;9.60;8.07;;;;;;;23.67;57.69;99114.00;5099477;28;20510;-61
2023/05/21 11:21:50;;;;;;;11.90;8.90;;;;;;;24.38;53.56;99104.09;5097789;28;20070;-61